sensor_id;sensor_type;location;lat;lon;timestamp;temperature;humidity
10873;DHT22;34586;53.616;10.032;2023-04-21T00:00:19;7.50;99.90
10873;DHT22;34586;53.616;10.032;2023-04-21T00:02:45;7.50;99.90
10873;DHT22;34586;53.616;10.032;2023-04-21T00:05:11;7.50;99.90
10873;DHT22;34586;53.616;10.032;2023-04-21T00:07:38;7.60;99.90
10873;DHT22;34586;53.616;10.032;2023-04-21T00:10:08;7.50;99.90
10873;DHT22;34586;53.616;10.032;2023-04-21T00:12:34;7.50;99.90
10873;DHT22;34586;53.616;10.032;2023-04-21T00:14:59;7.50;99.90
10873;DHT22;34586;53.616;10.032;2023-04-21T00:17:25;7.50;99.90
10873;DHT22;34586;53.616;10.032;2023-04-21T00:19:52;7.50;99.90
10873;DHT22;34586;53.616;10.032;2023-04-21T00:22:17;7.50;99.90
10873;DHT22;34586;53.616;10.032;2023-04-21T00:24:43;7.50;99.90
10873;DHT22;34586;53.616;10.032;2023-04-21T00:27:09;7.50;99.90
10873;DHT22;34586;53.616;10.032;2023-04-21T00:29:36;7.50;99.90
10873;DHT22;34586;53.616;10.032;2023-04-21T00:32:03;7.60;99.90
10873;DHT22;34586;53.616;10.032;2023-04-21T00:34:33;7.50;99.90
10873;DHT22;34586;53.616;10.032;2023-04-21T00:36:58;7.50;99.90
10873;DHT22;34586;53.616;10.032;2023-04-21T00:39:24;7.60;99.90
10873;DHT22;34586;53.616;10.032;2023-04-21T00:41:50;7.50;99.90
10873;DHT22;34586;53.616;10.032;2023-04-21T00:44:15;7.40;99.90
10873;DHT22;34586;53.616;10.032;2023-04-21T00:46:41;7.30;99.90
10873;DHT22;34586;53.616;10.032;2023-04-21T00:49:07;7.40;99.90
10873;DHT22;34586;53.616;10.032;2023-04-21T00:51:34;7.40;99.90
10873;DHT22;34586;53.616;10.032;2023-04-21T00:54:05;7.40;99.90
10873;DHT22;34586;53.616;10.032;2023-04-21T00:56:33;7.40;99.90
10873;DHT22;34586;53.616;10.032;2023-04-21T00:59:00;7.40;99.90
10873;DHT22;34586;53.616;10.032;2023-04-21T01:01:28;7.40;99.90
10873;DHT22;34586;53.616;10.032;2023-04-21T01:03:59;7.40;99.90
10873;DHT22;34586;53.616;10.032;2023-04-21T01:06:32;7.40;99.90
10873;DHT22;34586;53.616;10.032;2023-04-21T01:09:01;7.40;99.90
10873;DHT22;34586;53.616;10.032;2023-04-21T01:11:29;7.40;99.90
10873;DHT22;34586;53.616;10.032;2023-04-21T01:13:55;7.40;99.90
10873;DHT22;34586;53.616;10.032;2023-04-21T01:16:22;7.30;99.90
10873;DHT22;34586;53.616;10.032;2023-04-21T01:18:51;7.30;99.90
10873;DHT22;34586;53.616;10.032;2023-04-21T01:21:19;7.30;99.90
10873;DHT22;34586;53.616;10.032;2023-04-21T01:23:45;7.30;99.90
10873;DHT22;34586;53.616;10.032;2023-04-21T01:26:11;7.30;99.90
10873;DHT22;34586;53.616;10.032;2023-04-21T01:28:37;7.30;99.90
10873;DHT22;34586;53.616;10.032;2023-04-21T01:31:03;7.30;99.90
10873;DHT22;34586;53.616;10.032;2023-04-21T01:33:29;7.30;99.90
10873;DHT22;34586;53.616;10.032;2023-04-21T01:35:55;7.30;99.90
10873;DHT22;34586;53.616;10.032;2023-04-21T01:38:22;7.30;99.90
10873;DHT22;34586;53.616;10.032;2023-04-21T01:40:50;7.30;99.90
10873;DHT22;34586;53.616;10.032;2023-04-21T01:43:19;7.20;99.90
10873;DHT22;34586;53.616;10.032;2023-04-21T01:45:46;7.40;99.90
10873;DHT22;34586;53.616;10.032;2023-04-21T01:48:11;7.20;99.90
10873;DHT22;34586;53.616;10.032;2023-04-21T01:50:37;7.20;99.90
10873;DHT22;34586;53.616;10.032;2023-04-21T01:53:03;7.20;99.90
10873;DHT22;34586;53.616;10.032;2023-04-21T01:55:28;7.20;99.90
10873;DHT22;34586;53.616;10.032;2023-04-21T01:57:54;7.20;99.90
10873;DHT22;34586;53.616;10.032;2023-04-21T02:00:22;7.20;99.90
10873;DHT22;34586;53.616;10.032;2023-04-21T02:02:48;7.20;99.90
10873;DHT22;34586;53.616;10.032;2023-04-21T02:05:13;7.20;99.90
10873;DHT22;34586;53.616;10.032;2023-04-21T02:07:39;7.20;99.90
10873;DHT22;34586;53.616;10.032;2023-04-21T02:10:05;7.20;99.90
10873;DHT22;34586;53.616;10.032;2023-04-21T02:12:31;7.30;99.90
10873;DHT22;34586;53.616;10.032;2023-04-21T02:14:56;7.20;99.90
10873;DHT22;34586;53.616;10.032;2023-04-21T02:17:22;7.20;99.90
10873;DHT22;34586;53.616;10.032;2023-04-21T02:19:48;7.20;99.90
10873;DHT22;34586;53.616;10.032;2023-04-21T02:22:14;7.20;99.90
10873;DHT22;34586;53.616;10.032;2023-04-21T02:24:39;7.10;99.90
10873;DHT22;34586;53.616;10.032;2023-04-21T02:27:05;7.10;99.90
10873;DHT22;34586;53.616;10.032;2023-04-21T02:29:31;7.10;99.90
10873;DHT22;34586;53.616;10.032;2023-04-21T02:31:56;7.10;99.90
10873;DHT22;34586;53.616;10.032;2023-04-21T02:34:22;7.20;99.90
10873;DHT22;34586;53.616;10.032;2023-04-21T02:36:48;7.20;99.90
10873;DHT22;34586;53.616;10.032;2023-04-21T02:39:13;7.10;99.90
10873;DHT22;34586;53.616;10.032;2023-04-21T02:41:39;7.10;99.90
10873;DHT22;34586;53.616;10.032;2023-04-21T02:44:04;7.10;99.90
10873;DHT22;34586;53.616;10.032;2023-04-21T02:46:30;7.10;99.90
10873;DHT22;34586;53.616;10.032;2023-04-21T02:48:56;7.20;99.90
10873;DHT22;34586;53.616;10.032;2023-04-21T02:51:21;7.20;99.90
10873;DHT22;34586;53.616;10.032;2023-04-21T02:53:47;7.20;99.90
10873;DHT22;34586;53.616;10.032;2023-04-21T02:56:13;7.10;99.90
10873;DHT22;34586;53.616;10.032;2023-04-21T02:58:39;7.10;99.90
10873;DHT22;34586;53.616;10.032;2023-04-21T03:01:05;7.20;99.90
10873;DHT22;34586;53.616;10.032;2023-04-21T03:03:31;7.20;99.90
10873;DHT22;34586;53.616;10.032;2023-04-21T03:06:02;7.20;99.90
10873;DHT22;34586;53.616;10.032;2023-04-21T03:08:28;7.20;99.90
10873;DHT22;34586;53.616;10.032;2023-04-21T03:10:54;7.20;99.90
10873;DHT22;34586;53.616;10.032;2023-04-21T03:13:19;7.20;99.90
10873;DHT22;34586;53.616;10.032;2023-04-21T03:15:45;7.10;99.90
10873;DHT22;34586;53.616;10.032;2023-04-21T03:18:11;7.20;99.90
10873;DHT22;34586;53.616;10.032;2023-04-21T03:20:37;7.10;99.90
10873;DHT22;34586;53.616;10.032;2023-04-21T03:23:02;7.20;99.90
10873;DHT22;34586;53.616;10.032;2023-04-21T03:25:28;7.10;99.90
10873;DHT22;34586;53.616;10.032;2023-04-21T03:27:54;7.20;99.90
10873;DHT22;34586;53.616;10.032;2023-04-21T03:30:20;7.10;99.90
10873;DHT22;34586;53.616;10.032;2023-04-21T03:32:46;7.10;99.90
10873;DHT22;34586;53.616;10.032;2023-04-21T03:35:11;7.10;99.90
10873;DHT22;34586;53.616;10.032;2023-04-21T03:37:37;7.10;99.90
10873;DHT22;34586;53.616;10.032;2023-04-21T03:40:04;7.20;99.90
10873;DHT22;34586;53.616;10.032;2023-04-21T03:42:30;7.10;99.90
10873;DHT22;34586;53.616;10.032;2023-04-21T03:45:03;7.10;99.90
10873;DHT22;34586;53.616;10.032;2023-04-21T03:47:29;7.10;99.90
10873;DHT22;34586;53.616;10.032;2023-04-21T03:49:55;7.10;99.90
10873;DHT22;34586;53.616;10.032;2023-04-21T03:52:20;7.10;99.90
10873;DHT22;34586;53.616;10.032;2023-04-21T03:54:46;7.10;99.90
10873;DHT22;34586;53.616;10.032;2023-04-21T03:57:12;7.10;99.90
10873;DHT22;34586;53.616;10.032;2023-04-21T03:59:37;7.00;99.90
10873;DHT22;34586;53.616;10.032;2023-04-21T04:02:03;7.00;99.90
10873;DHT22;34586;53.616;10.032;2023-04-21T04:04:28;7.10;99.90
10873;DHT22;34586;53.616;10.032;2023-04-21T04:06:54;7.10;99.90
10873;DHT22;34586;53.616;10.032;2023-04-21T04:09:20;7.10;99.90
10873;DHT22;34586;53.616;10.032;2023-04-21T04:11:46;7.10;99.90
10873;DHT22;34586;53.616;10.032;2023-04-21T04:14:11;7.10;99.90
10873;DHT22;34586;53.616;10.032;2023-04-21T04:16:37;7.10;99.90
10873;DHT22;34586;53.616;10.032;2023-04-21T04:19:02;7.10;99.90
10873;DHT22;34586;53.616;10.032;2023-04-21T04:21:28;7.10;99.90
10873;DHT22;34586;53.616;10.032;2023-04-21T04:23:54;7.10;99.90
10873;DHT22;34586;53.616;10.032;2023-04-21T04:26:20;7.10;99.90
10873;DHT22;34586;53.616;10.032;2023-04-21T04:28:49;7.00;99.90
10873;DHT22;34586;53.616;10.032;2023-04-21T04:31:15;7.20;99.90
10873;DHT22;34586;53.616;10.032;2023-04-21T04:33:41;7.20;99.90
10873;DHT22;34586;53.616;10.032;2023-04-21T04:36:07;7.10;99.90
10873;DHT22;34586;53.616;10.032;2023-04-21T04:38:33;7.10;99.90
10873;DHT22;34586;53.616;10.032;2023-04-21T04:41:02;7.20;99.90
10873;DHT22;34586;53.616;10.032;2023-04-21T04:43:28;7.20;99.90
10873;DHT22;34586;53.616;10.032;2023-04-21T04:45:53;7.20;99.90
10873;DHT22;34586;53.616;10.032;2023-04-21T04:48:19;7.20;99.90
10873;DHT22;34586;53.616;10.032;2023-04-21T04:50:45;7.20;99.90
10873;DHT22;34586;53.616;10.032;2023-04-21T04:53:10;7.20;99.90
10873;DHT22;34586;53.616;10.032;2023-04-21T04:55:36;7.30;99.90
10873;DHT22;34586;53.616;10.032;2023-04-21T04:58:02;7.30;99.90
10873;DHT22;34586;53.616;10.032;2023-04-21T05:00:28;7.30;99.90
10873;DHT22;34586;53.616;10.032;2023-04-21T05:02:54;7.40;99.90
10873;DHT22;34586;53.616;10.032;2023-04-21T05:05:20;7.30;99.90
10873;DHT22;34586;53.616;10.032;2023-04-21T05:07:46;7.40;99.90
10873;DHT22;34586;53.616;10.032;2023-04-21T05:10:12;7.40;99.90
10873;DHT22;34586;53.616;10.032;2023-04-21T05:12:38;7.40;99.90
10873;DHT22;34586;53.616;10.032;2023-04-21T05:15:05;7.50;99.90
10873;DHT22;34586;53.616;10.032;2023-04-21T05:17:32;7.50;99.90
10873;DHT22;34586;53.616;10.032;2023-04-21T05:19:58;7.60;99.90
10873;DHT22;34586;53.616;10.032;2023-04-21T05:22:24;7.60;99.90
10873;DHT22;34586;53.616;10.032;2023-04-21T05:24:51;7.70;99.90
10873;DHT22;34586;53.616;10.032;2023-04-21T05:27:16;8.00;99.90
10873;DHT22;34586;53.616;10.032;2023-04-21T05:29:42;7.80;99.90
10873;DHT22;34586;53.616;10.032;2023-04-21T05:32:08;7.80;99.90
10873;DHT22;34586;53.616;10.032;2023-04-21T05:34:34;7.80;99.90
10873;DHT22;34586;53.616;10.032;2023-04-21T05:36:59;7.90;99.90
10873;DHT22;34586;53.616;10.032;2023-04-21T05:39:26;8.00;99.90
10873;DHT22;34586;53.616;10.032;2023-04-21T05:41:52;8.10;99.90
10873;DHT22;34586;53.616;10.032;2023-04-21T05:44:18;8.20;99.90
10873;DHT22;34586;53.616;10.032;2023-04-21T05:46:43;8.30;99.90
10873;DHT22;34586;53.616;10.032;2023-04-21T05:49:09;8.40;99.90
10873;DHT22;34586;53.616;10.032;2023-04-21T05:51:35;8.50;99.90
10873;DHT22;34586;53.616;10.032;2023-04-21T05:54:00;8.50;99.90
10873;DHT22;34586;53.616;10.032;2023-04-21T05:56:26;8.70;99.90
10873;DHT22;34586;53.616;10.032;2023-04-21T05:58:51;8.70;99.90
10873;DHT22;34586;53.616;10.032;2023-04-21T06:01:17;8.80;99.90
10873;DHT22;34586;53.616;10.032;2023-04-21T06:03:43;8.90;99.90
10873;DHT22;34586;53.616;10.032;2023-04-21T06:06:08;8.90;99.90
10873;DHT22;34586;53.616;10.032;2023-04-21T06:08:35;8.90;99.90
10873;DHT22;34586;53.616;10.032;2023-04-21T06:11:01;9.00;99.90
10873;DHT22;34586;53.616;10.032;2023-04-21T06:13:27;9.10;99.90
10873;DHT22;34586;53.616;10.032;2023-04-21T06:15:56;9.20;99.90
10873;DHT22;34586;53.616;10.032;2023-04-21T06:18:22;9.40;99.90
10873;DHT22;34586;53.616;10.032;2023-04-21T06:20:52;9.30;99.90
10873;DHT22;34586;53.616;10.032;2023-04-21T06:23:18;9.40;99.90
10873;DHT22;34586;53.616;10.032;2023-04-21T06:25:44;9.60;99.90
10873;DHT22;34586;53.616;10.032;2023-04-21T06:28:10;9.60;99.90
10873;DHT22;34586;53.616;10.032;2023-04-21T06:30:35;9.60;99.90
10873;DHT22;34586;53.616;10.032;2023-04-21T06:33:01;9.60;99.90
10873;DHT22;34586;53.616;10.032;2023-04-21T06:35:26;9.80;99.90
10873;DHT22;34586;53.616;10.032;2023-04-21T06:37:52;9.70;99.90
10873;DHT22;34586;53.616;10.032;2023-04-21T06:40:17;9.80;99.90
10873;DHT22;34586;53.616;10.032;2023-04-21T06:42:43;9.80;99.90
10873;DHT22;34586;53.616;10.032;2023-04-21T06:45:09;10.00;99.90
10873;DHT22;34586;53.616;10.032;2023-04-21T06:47:35;10.00;99.90
10873;DHT22;34586;53.616;10.032;2023-04-21T06:50:00;10.10;99.90
10873;DHT22;34586;53.616;10.032;2023-04-21T06:52:26;10.10;99.90
10873;DHT22;34586;53.616;10.032;2023-04-21T06:54:54;10.20;99.90
10873;DHT22;34586;53.616;10.032;2023-04-21T06:57:20;10.30;99.90
10873;DHT22;34586;53.616;10.032;2023-04-21T06:59:45;10.40;99.90
10873;DHT22;34586;53.616;10.032;2023-04-21T07:02:11;10.60;99.90
10873;DHT22;34586;53.616;10.032;2023-04-21T07:04:37;10.50;99.90
10873;DHT22;34586;53.616;10.032;2023-04-21T07:07:02;10.60;99.90
10873;DHT22;34586;53.616;10.032;2023-04-21T07:09:28;10.70;99.90
10873;DHT22;34586;53.616;10.032;2023-04-21T07:11:54;10.70;99.90
10873;DHT22;34586;53.616;10.032;2023-04-21T07:14:20;10.80;99.90
10873;DHT22;34586;53.616;10.032;2023-04-21T07:16:45;10.90;99.90
10873;DHT22;34586;53.616;10.032;2023-04-21T07:19:11;10.90;99.90
10873;DHT22;34586;53.616;10.032;2023-04-21T07:21:37;11.00;99.90
10873;DHT22;34586;53.616;10.032;2023-04-21T07:24:03;11.00;99.90
10873;DHT22;34586;53.616;10.032;2023-04-21T07:26:28;11.10;99.90
10873;DHT22;34586;53.616;10.032;2023-04-21T07:28:55;11.30;99.90
10873;DHT22;34586;53.616;10.032;2023-04-21T07:31:23;11.20;99.90
10873;DHT22;34586;53.616;10.032;2023-04-21T07:33:49;11.30;99.90
10873;DHT22;34586;53.616;10.032;2023-04-21T07:36:15;11.40;99.90
10873;DHT22;34586;53.616;10.032;2023-04-21T07:38:41;11.40;99.90
10873;DHT22;34586;53.616;10.032;2023-04-21T07:41:09;11.50;99.90
10873;DHT22;34586;53.616;10.032;2023-04-21T07:43:35;11.50;99.90
10873;DHT22;34586;53.616;10.032;2023-04-21T07:46:01;11.60;99.90
10873;DHT22;34586;53.616;10.032;2023-04-21T07:48:27;11.60;99.90
10873;DHT22;34586;53.616;10.032;2023-04-21T07:50:52;11.70;99.90
10873;DHT22;34586;53.616;10.032;2023-04-21T07:53:18;11.90;99.90
10873;DHT22;34586;53.616;10.032;2023-04-21T07:55:43;11.90;99.90
10873;DHT22;34586;53.616;10.032;2023-04-21T07:58:09;12.00;99.90
10873;DHT22;34586;53.616;10.032;2023-04-21T08:00:35;12.00;99.90
10873;DHT22;34586;53.616;10.032;2023-04-21T08:03:01;12.00;99.90
10873;DHT22;34586;53.616;10.032;2023-04-21T08:05:26;12.20;99.90
10873;DHT22;34586;53.616;10.032;2023-04-21T08:07:53;12.20;99.90
10873;DHT22;34586;53.616;10.032;2023-04-21T08:10:19;12.20;99.90
10873;DHT22;34586;53.616;10.032;2023-04-21T08:12:44;12.30;99.90
10873;DHT22;34586;53.616;10.032;2023-04-21T08:15:10;12.40;99.90
10873;DHT22;34586;53.616;10.032;2023-04-21T08:17:36;12.50;99.90
10873;DHT22;34586;53.616;10.032;2023-04-21T08:20:03;12.60;99.90
10873;DHT22;34586;53.616;10.032;2023-04-21T08:22:28;12.60;99.90
10873;DHT22;34586;53.616;10.032;2023-04-21T08:24:54;12.60;99.90
10873;DHT22;34586;53.616;10.032;2023-04-21T08:27:19;12.70;99.90
10873;DHT22;34586;53.616;10.032;2023-04-21T08:29:45;12.70;99.90
10873;DHT22;34586;53.616;10.032;2023-04-21T08:32:11;12.90;99.90
10873;DHT22;34586;53.616;10.032;2023-04-21T08:34:36;13.10;99.90
10873;DHT22;34586;53.616;10.032;2023-04-21T08:37:02;13.10;99.90
10873;DHT22;34586;53.616;10.032;2023-04-21T08:39:28;13.20;99.90
10873;DHT22;34586;53.616;10.032;2023-04-21T08:41:55;13.30;99.90
10873;DHT22;34586;53.616;10.032;2023-04-21T08:44:22;13.40;99.90
10873;DHT22;34586;53.616;10.032;2023-04-21T08:46:48;13.40;99.90
10873;DHT22;34586;53.616;10.032;2023-04-21T08:49:18;13.50;99.90
10873;DHT22;34586;53.616;10.032;2023-04-21T08:51:44;13.60;99.90
10873;DHT22;34586;53.616;10.032;2023-04-21T08:54:10;13.60;99.90
10873;DHT22;34586;53.616;10.032;2023-04-21T08:56:36;13.60;99.90
10873;DHT22;34586;53.616;10.032;2023-04-21T08:59:01;13.70;99.90
10873;DHT22;34586;53.616;10.032;2023-04-21T09:01:27;13.80;99.90
10873;DHT22;34586;53.616;10.032;2023-04-21T09:03:52;13.90;99.90
10873;DHT22;34586;53.616;10.032;2023-04-21T09:06:18;14.00;99.90
10873;DHT22;34586;53.616;10.032;2023-04-21T09:08:53;14.10;99.90
10873;DHT22;34586;53.616;10.032;2023-04-21T09:11:21;14.10;99.90
10873;DHT22;34586;53.616;10.032;2023-04-21T09:13:47;14.20;99.90
10873;DHT22;34586;53.616;10.032;2023-04-21T09:16:18;14.20;99.90
10873;DHT22;34586;53.616;10.032;2023-04-21T09:18:45;14.40;99.90
10873;DHT22;34586;53.616;10.032;2023-04-21T09:21:14;14.50;99.90
10873;DHT22;34586;53.616;10.032;2023-04-21T09:23:44;14.50;99.90
10873;DHT22;34586;53.616;10.032;2023-04-21T09:26:11;14.60;99.90
10873;DHT22;34586;53.616;10.032;2023-04-21T09:28:40;14.70;99.90
10873;DHT22;34586;53.616;10.032;2023-04-21T09:31:16;14.80;99.90
10873;DHT22;34586;53.616;10.032;2023-04-21T09:33:49;14.90;99.90
10873;DHT22;34586;53.616;10.032;2023-04-21T09:36:24;14.90;99.90
10873;DHT22;34586;53.616;10.032;2023-04-21T09:41:19;15.10;99.90
10873;DHT22;34586;53.616;10.032;2023-04-21T09:43:44;15.20;99.90
10873;DHT22;34586;53.616;10.032;2023-04-21T09:46:11;15.20;99.90
10873;DHT22;34586;53.616;10.032;2023-04-21T09:48:40;15.30;99.90
10873;DHT22;34586;53.616;10.032;2023-04-21T09:51:08;15.40;99.90
10873;DHT22;34586;53.616;10.032;2023-04-21T09:53:38;15.50;99.90
10873;DHT22;34586;53.616;10.032;2023-04-21T09:56:07;15.50;99.90
10873;DHT22;34586;53.616;10.032;2023-04-21T09:58:40;15.60;99.90
10873;DHT22;34586;53.616;10.032;2023-04-21T10:01:08;15.70;99.90
10873;DHT22;34586;53.616;10.032;2023-04-21T10:03:34;15.80;99.90
10873;DHT22;34586;53.616;10.032;2023-04-21T10:06:03;15.80;99.90
10873;DHT22;34586;53.616;10.032;2023-04-21T10:08:29;16.00;99.90
10873;DHT22;34586;53.616;10.032;2023-04-21T10:10:55;16.10;99.90
10873;DHT22;34586;53.616;10.032;2023-04-21T10:13:21;16.10;99.90
10873;DHT22;34586;53.616;10.032;2023-04-21T10:15:47;16.20;99.90
10873;DHT22;34586;53.616;10.032;2023-04-21T10:18:22;16.30;99.90
10873;DHT22;34586;53.616;10.032;2023-04-21T10:21:05;16.40;99.90
10873;DHT22;34586;53.616;10.032;2023-04-21T10:23:41;16.40;99.90
10873;DHT22;34586;53.616;10.032;2023-04-21T10:28:41;16.60;99.90
10873;DHT22;34586;53.616;10.032;2023-04-21T10:31:17;16.70;99.90
10873;DHT22;34586;53.616;10.032;2023-04-21T10:39:23;16.80;99.90
10873;DHT22;34586;53.616;10.032;2023-04-21T10:41:49;16.90;99.90
10873;DHT22;34586;53.616;10.032;2023-04-21T10:44:16;17.00;99.90
10873;DHT22;34586;53.616;10.032;2023-04-21T10:46:52;16.90;99.90
10873;DHT22;34586;53.616;10.032;2023-04-21T10:49:28;17.10;99.90
10873;DHT22;34586;53.616;10.032;2023-04-21T10:56:57;17.20;99.90
10873;DHT22;34586;53.616;10.032;2023-04-21T10:59:25;17.30;99.90
10873;DHT22;34586;53.616;10.032;2023-04-21T11:01:51;17.30;99.90
10873;DHT22;34586;53.616;10.032;2023-04-21T11:04:19;17.40;99.90
10873;DHT22;34586;53.616;10.032;2023-04-21T11:07:05;17.40;99.90
10873;DHT22;34586;53.616;10.032;2023-04-21T11:09:34;17.60;99.90
10873;DHT22;34586;53.616;10.032;2023-04-21T11:12:02;17.60;99.90
10873;DHT22;34586;53.616;10.032;2023-04-21T11:14:29;17.80;99.90
10873;DHT22;34586;53.616;10.032;2023-04-21T11:16:55;17.80;99.90
10873;DHT22;34586;53.616;10.032;2023-04-21T11:19:21;17.80;99.90
10873;DHT22;34586;53.616;10.032;2023-04-21T11:21:52;17.90;99.90
10873;DHT22;34586;53.616;10.032;2023-04-21T11:24:20;17.90;99.90
10873;DHT22;34586;53.616;10.032;2023-04-21T11:26:45;18.10;99.90
10873;DHT22;34586;53.616;10.032;2023-04-21T11:29:11;18.20;99.90
10873;DHT22;34586;53.616;10.032;2023-04-21T11:31:38;18.40;99.90
10873;DHT22;34586;53.616;10.032;2023-04-21T11:34:05;18.40;99.90
10873;DHT22;34586;53.616;10.032;2023-04-21T11:36:35;18.30;99.90
10873;DHT22;34586;53.616;10.032;2023-04-21T11:39:09;18.50;99.90
10873;DHT22;34586;53.616;10.032;2023-04-21T11:41:39;18.60;99.90
10873;DHT22;34586;53.616;10.032;2023-04-21T11:44:05;18.70;99.90
10873;DHT22;34586;53.616;10.032;2023-04-21T11:46:31;18.70;99.90
10873;DHT22;34586;53.616;10.032;2023-04-21T11:49:10;18.90;99.90
10873;DHT22;34586;53.616;10.032;2023-04-21T11:51:42;18.90;99.90
10873;DHT22;34586;53.616;10.032;2023-04-21T11:54:10;19.00;99.90
10873;DHT22;34586;53.616;10.032;2023-04-21T11:56:37;19.10;99.90
10873;DHT22;34586;53.616;10.032;2023-04-21T11:59:13;19.30;99.90
10873;DHT22;34586;53.616;10.032;2023-04-21T12:01:48;19.20;99.90
10873;DHT22;34586;53.616;10.032;2023-04-21T12:04:15;19.40;99.90
10873;DHT22;34586;53.616;10.032;2023-04-21T12:06:41;19.50;99.90
10873;DHT22;34586;53.616;10.032;2023-04-21T12:09:07;19.50;99.90
10873;DHT22;34586;53.616;10.032;2023-04-21T12:11:33;19.70;99.90
10873;DHT22;34586;53.616;10.032;2023-04-21T12:13:59;19.90;99.90
10873;DHT22;34586;53.616;10.032;2023-04-21T12:16:27;19.90;99.90
10873;DHT22;34586;53.616;10.032;2023-04-21T12:18:56;19.80;99.90
10873;DHT22;34586;53.616;10.032;2023-04-21T12:21:28;20.00;99.90
10873;DHT22;34586;53.616;10.032;2023-04-21T12:23:55;20.20;99.90
10873;DHT22;34586;53.616;10.032;2023-04-21T12:26:21;20.80;1.00
10873;DHT22;34586;53.616;10.032;2023-04-21T12:28:51;21.90;8.80
10873;DHT22;34586;53.616;10.032;2023-04-21T12:31:17;22.90;1.00
10873;DHT22;34586;53.616;10.032;2023-04-21T12:33:43;23.30;99.90
10873;DHT22;34586;53.616;10.032;2023-04-21T12:36:09;24.00;99.90
10873;DHT22;34586;53.616;10.032;2023-04-21T12:38:35;24.00;76.40
10873;DHT22;34586;53.616;10.032;2023-04-21T12:41:01;23.50;1.00
10873;DHT22;34586;53.616;10.032;2023-04-21T12:43:28;22.90;71.80
10873;DHT22;34586;53.616;10.032;2023-04-21T12:45:55;22.40;99.90
10873;DHT22;34586;53.616;10.032;2023-04-21T12:48:20;22.40;99.90
10873;DHT22;34586;53.616;10.032;2023-04-21T12:50:46;22.80;99.90
10873;DHT22;34586;53.616;10.032;2023-04-21T12:53:12;23.20;99.90
10873;DHT22;34586;53.616;10.032;2023-04-21T12:55:38;23.60;99.90
10873;DHT22;34586;53.616;10.032;2023-04-21T12:58:04;24.20;99.90
10873;DHT22;34586;53.616;10.032;2023-04-21T13:00:29;25.10;37.10
10873;DHT22;34586;53.616;10.032;2023-04-21T13:02:56;24.70;1.00
10873;DHT22;34586;53.616;10.032;2023-04-21T13:05:21;24.50;70.60
10873;DHT22;34586;53.616;10.032;2023-04-21T13:07:47;23.90;75.50
10873;DHT22;34586;53.616;10.032;2023-04-21T13:10:12;23.40;75.70
10873;DHT22;34586;53.616;10.032;2023-04-21T13:12:38;22.60;99.90
10873;DHT22;34586;53.616;10.032;2023-04-21T13:15:04;22.10;99.90
10873;DHT22;34586;53.616;10.032;2023-04-21T13:17:30;21.70;99.90
10873;DHT22;34586;53.616;10.032;2023-04-21T13:19:56;22.00;99.90
10873;DHT22;34586;53.616;10.032;2023-04-21T13:22:22;22.20;99.90
10873;DHT22;34586;53.616;10.032;2023-04-21T13:24:48;22.10;99.90
10873;DHT22;34586;53.616;10.032;2023-04-21T13:27:13;22.00;99.90
10873;DHT22;34586;53.616;10.032;2023-04-21T13:29:39;22.40;99.90
10873;DHT22;34586;53.616;10.032;2023-04-21T13:32:06;22.20;99.90
10873;DHT22;34586;53.616;10.032;2023-04-21T13:34:32;22.30;99.90
10873;DHT22;34586;53.616;10.032;2023-04-21T13:37:01;22.40;99.90
10873;DHT22;34586;53.616;10.032;2023-04-21T13:39:27;22.10;99.90
10873;DHT22;34586;53.616;10.032;2023-04-21T13:41:53;21.90;99.90
10873;DHT22;34586;53.616;10.032;2023-04-21T13:44:19;21.90;99.90
10873;DHT22;34586;53.616;10.032;2023-04-21T13:46:46;21.60;99.90
10873;DHT22;34586;53.616;10.032;2023-04-21T13:49:12;21.60;99.90
10873;DHT22;34586;53.616;10.032;2023-04-21T13:51:37;21.80;99.90
10873;DHT22;34586;53.616;10.032;2023-04-21T13:54:03;22.00;99.90
10873;DHT22;34586;53.616;10.032;2023-04-21T13:56:29;22.50;99.90
10873;DHT22;34586;53.616;10.032;2023-04-21T13:58:55;22.90;99.90
10873;DHT22;34586;53.616;10.032;2023-04-21T14:01:21;22.70;99.90
10873;DHT22;34586;53.616;10.032;2023-04-21T14:03:47;22.70;99.90
10873;DHT22;34586;53.616;10.032;2023-04-21T14:06:12;23.00;99.90
10873;DHT22;34586;53.616;10.032;2023-04-21T14:08:38;22.90;99.90
10873;DHT22;34586;53.616;10.032;2023-04-21T14:11:03;22.40;99.90
10873;DHT22;34586;53.616;10.032;2023-04-21T14:13:30;22.00;99.90
10873;DHT22;34586;53.616;10.032;2023-04-21T14:15:56;22.10;99.90
10873;DHT22;34586;53.616;10.032;2023-04-21T14:18:23;22.10;99.90
10873;DHT22;34586;53.616;10.032;2023-04-21T14:20:48;22.10;99.90
10873;DHT22;34586;53.616;10.032;2023-04-21T14:23:14;22.20;99.90
10873;DHT22;34586;53.616;10.032;2023-04-21T14:25:40;22.10;99.90
10873;DHT22;34586;53.616;10.032;2023-04-21T14:28:06;21.80;99.90
10873;DHT22;34586;53.616;10.032;2023-04-21T14:30:34;21.80;99.90
10873;DHT22;34586;53.616;10.032;2023-04-21T14:33:01;21.70;1.00
10873;DHT22;34586;53.616;10.032;2023-04-21T14:35:27;21.30;99.90
10873;DHT22;34586;53.616;10.032;2023-04-21T14:37:52;21.20;99.90
10873;DHT22;34586;53.616;10.032;2023-04-21T14:40:18;20.90;99.90
10873;DHT22;34586;53.616;10.032;2023-04-21T14:42:43;20.90;99.90
10873;DHT22;34586;53.616;10.032;2023-04-21T14:45:09;20.70;99.90
10873;DHT22;34586;53.616;10.032;2023-04-21T14:47:36;20.70;99.90
10873;DHT22;34586;53.616;10.032;2023-04-21T14:50:02;20.40;99.90
10873;DHT22;34586;53.616;10.032;2023-04-21T14:52:29;20.40;99.90
10873;DHT22;34586;53.616;10.032;2023-04-21T14:54:55;20.30;99.90
10873;DHT22;34586;53.616;10.032;2023-04-21T14:57:20;20.50;99.90
10873;DHT22;34586;53.616;10.032;2023-04-21T14:59:50;20.70;99.90
10873;DHT22;34586;53.616;10.032;2023-04-21T15:02:16;20.60;99.90
10873;DHT22;34586;53.616;10.032;2023-04-21T15:04:41;20.50;99.90
10873;DHT22;34586;53.616;10.032;2023-04-21T15:07:07;20.50;99.90
10873;DHT22;34586;53.616;10.032;2023-04-21T15:09:33;20.80;85.10
10873;DHT22;34586;53.616;10.032;2023-04-21T15:11:59;21.10;1.00
10873;DHT22;34586;53.616;10.032;2023-04-21T15:14:25;21.20;1.00
10873;DHT22;34586;53.616;10.032;2023-04-21T15:16:51;21.00;99.90
10873;DHT22;34586;53.616;10.032;2023-04-21T15:19:16;20.70;99.90
10873;DHT22;34586;53.616;10.032;2023-04-21T15:21:42;20.20;99.90
10873;DHT22;34586;53.616;10.032;2023-04-21T15:24:07;20.10;99.90
10873;DHT22;34586;53.616;10.032;2023-04-21T15:26:34;20.20;99.90
10873;DHT22;34586;53.616;10.032;2023-04-21T15:29:00;20.30;99.90
10873;DHT22;34586;53.616;10.032;2023-04-21T15:31:25;20.30;99.90
10873;DHT22;34586;53.616;10.032;2023-04-21T15:33:51;20.30;99.90